sensor_id;sensor_type;location;lat;lon;timestamp;pressure;altitude;pressure_sealevel;temperature
78369;BMP280;71113;43.092;-89.268;2024-01-11T00:00:48;96628.50;;;20.00
78369;BMP280;71113;43.092;-89.268;2024-01-11T00:03:14;96637.22;;;20.04
78369;BMP280;71113;43.092;-89.268;2024-01-11T00:05:40;96635.72;;;20.07
78369;BMP280;71113;43.092;-89.268;2024-01-11T00:08:07;96633.13;;;20.14
78369;BMP280;71113;43.092;-89.268;2024-01-11T00:10:33;96631.66;;;20.13
78369;BMP280;71113;43.092;-89.268;2024-01-11T00:12:59;96631.19;;;20.07
78369;BMP280;71113;43.092;-89.268;2024-01-11T00:15:25;96626.28;;;20.06
78369;BMP280;71113;43.092;-89.268;2024-01-11T00:17:50;96615.28;;;20.04
78369;BMP280;71113;43.092;-89.268;2024-01-11T00:20:16;96617.94;;;20.04
78369;BMP280;71113;43.092;-89.268;2024-01-11T00:22:42;96620.19;;;20.02
78369;BMP280;71113;43.092;-89.268;2024-01-11T00:25:08;96618.66;;;20.01
78369;BMP280;71113;43.092;-89.268;2024-01-11T00:27:34;96622.44;;;20.00
78369;BMP280;71113;43.092;-89.268;2024-01-11T00:30:00;96625.47;;;19.98
78369;BMP280;71113;43.092;-89.268;2024-01-11T00:32:26;96616.75;;;19.98
78369;BMP280;71113;43.092;-89.268;2024-01-11T00:34:51;96624.31;;;19.96
78369;BMP280;71113;43.092;-89.268;2024-01-11T00:37:18;96611.78;;;19.93
78369;BMP280;71113;43.092;-89.268;2024-01-11T00:39:44;96616.31;;;19.92
78369;BMP280;71113;43.092;-89.268;2024-01-11T00:42:09;96616.72;;;19.94
78369;BMP280;71113;43.092;-89.268;2024-01-11T00:44:35;96617.84;;;19.97
78369;BMP280;71113;43.092;-89.268;2024-01-11T00:47:01;96623.97;;;20.01
78369;BMP280;71113;43.092;-89.268;2024-01-11T00:49:27;96618.31;;;20.06
78369;BMP280;71113;43.092;-89.268;2024-01-11T00:51:53;96621.75;;;20.10
78369;BMP280;71113;43.092;-89.268;2024-01-11T00:54:19;96624.81;;;20.12
78369;BMP280;71113;43.092;-89.268;2024-01-11T00:56:45;96630.06;;;20.08
78369;BMP280;71113;43.092;-89.268;2024-01-11T00:59:11;96625.47;;;20.02
78369;BMP280;71113;43.092;-89.268;2024-01-11T01:01:37;96619.78;;;20.00
78369;BMP280;71113;43.092;-89.268;2024-01-11T01:04:03;96626.22;;;19.99
78369;BMP280;71113;43.092;-89.268;2024-01-11T01:06:29;96622.81;;;19.98
78369;BMP280;71113;43.092;-89.268;2024-01-11T01:08:55;96620.50;;;19.97
78369;BMP280;71113;43.092;-89.268;2024-01-11T01:11:21;96614.09;;;19.94
78369;BMP280;71113;43.092;-89.268;2024-01-11T01:13:47;96618.63;;;19.94
78369;BMP280;71113;43.092;-89.268;2024-01-11T01:16:13;96626.16;;;19.92
78369;BMP280;71113;43.092;-89.268;2024-01-11T01:18:40;96627.28;;;19.91
78369;BMP280;71113;43.092;-89.268;2024-01-11T01:21:06;96625.75;;;19.90
78369;BMP280;71113;43.092;-89.268;2024-01-11T01:23:32;96624.22;;;19.89
78369;BMP280;71113;43.092;-89.268;2024-01-11T01:25:58;96625.38;;;19.88
78369;BMP280;71113;43.092;-89.268;2024-01-11T01:28:24;96638.19;;;19.86
78369;BMP280;71113;43.092;-89.268;2024-01-11T01:30:50;96639.28;;;19.85
78369;BMP280;71113;43.092;-89.268;2024-01-11T01:33:16;96636.28;;;19.83
78369;BMP280;71113;43.092;-89.268;2024-01-11T01:35:43;96640.06;;;19.85
78369;BMP280;71113;43.092;-89.268;2024-01-11T01:38:09;96639.75;;;19.90
78369;BMP280;71113;43.092;-89.268;2024-01-11T01:40:35;96637.16;;;19.97
78369;BMP280;71113;43.092;-89.268;2024-01-11T01:43:06;96624.78;;;20.05
78369;BMP280;71113;43.092;-89.268;2024-01-11T01:45:36;96612.72;;;20.15
78369;BMP280;71113;43.092;-89.268;2024-01-11T01:48:02;96617.34;;;20.21
78369;BMP280;71113;43.092;-89.268;2024-01-11T01:50:29;96616.53;;;20.14
78369;BMP280;71113;43.092;-89.268;2024-01-11T01:52:55;96619.47;;;20.08
78369;BMP280;71113;43.092;-89.268;2024-01-11T01:55:22;96622.50;;;20.07
78369;BMP280;71113;43.092;-89.268;2024-01-11T01:57:50;96622.13;;;20.08
78369;BMP280;71113;43.092;-89.268;2024-01-11T02:00:16;96623.69;;;20.09
78369;BMP280;71113;43.092;-89.268;2024-01-11T02:02:44;96613.09;;;20.09
78369;BMP280;71113;43.092;-89.268;2024-01-11T02:05:13;96596.81;;;20.11
78369;BMP280;71113;43.092;-89.268;2024-01-11T02:07:40;96607.41;;;20.11
78369;BMP280;71113;43.092;-89.268;2024-01-11T02:10:07;96613.47;;;20.11
78369;BMP280;71113;43.092;-89.268;2024-01-11T02:12:35;96625.16;;;20.10
78369;BMP280;71113;43.092;-89.268;2024-01-11T02:15:03;96628.25;;;20.13
78369;BMP280;71113;43.092;-89.268;2024-01-11T02:17:30;96636.94;;;20.13
78369;BMP280;71113;43.092;-89.268;2024-01-11T02:19:56;96621.81;;;20.14
78369;BMP280;71113;43.092;-89.268;2024-01-11T02:22:28;96611.97;;;20.14
78369;BMP280;71113;43.092;-89.268;2024-01-11T02:24:54;96605.94;;;20.14
78369;BMP280;71113;43.092;-89.268;2024-01-11T02:27:23;96627.84;;;20.14
78369;BMP280;71113;43.092;-89.268;2024-01-11T02:29:49;96625.19;;;20.14
78369;BMP280;71113;43.092;-89.268;2024-01-11T02:32:15;96643.00;;;20.14
78369;BMP280;71113;43.092;-89.268;2024-01-11T02:34:41;96672.84;;;20.14
78369;BMP280;71113;43.092;-89.268;2024-01-11T02:37:08;96669.47;;;20.14
78369;BMP280;71113;43.092;-89.268;2024-01-11T02:39:34;96674.38;;;20.15
78369;BMP280;71113;43.092;-89.268;2024-01-11T02:42:00;96672.84;;;20.14
78369;BMP280;71113;43.092;-89.268;2024-01-11T02:44:27;96680.44;;;20.19
78369;BMP280;71113;43.092;-89.268;2024-01-11T02:46:53;96689.94;;;20.24
78369;BMP280;71113;43.092;-89.268;2024-01-11T02:49:19;96702.50;;;20.30
78369;BMP280;71113;43.092;-89.268;2024-01-11T02:51:45;96714.97;;;20.30
78369;BMP280;71113;43.092;-89.268;2024-01-11T02:54:11;96714.97;;;20.26
78369;BMP280;71113;43.092;-89.268;2024-01-11T02:56:37;96716.84;;;20.26
78369;BMP280;71113;43.092;-89.268;2024-01-11T02:59:03;96714.97;;;20.26
78369;BMP280;71113;43.092;-89.268;2024-01-11T03:01:29;96714.19;;;20.26
78369;BMP280;71113;43.092;-89.268;2024-01-11T03:03:56;96725.91;;;20.25
78369;BMP280;71113;43.092;-89.268;2024-01-11T03:06:22;96722.91;;;20.26
78369;BMP280;71113;43.092;-89.268;2024-01-11T03:08:48;96726.28;;;20.27
78369;BMP280;71113;43.092;-89.268;2024-01-11T03:11:15;96716.44;;;20.27
78369;BMP280;71113;43.092;-89.268;2024-01-11T03:13:42;96718.34;;;20.27
78369;BMP280;71113;43.092;-89.268;2024-01-11T03:16:08;96715.69;;;20.27
78369;BMP280;71113;43.092;-89.268;2024-01-11T03:18:34;96714.97;;;20.26
78369;BMP280;71113;43.092;-89.268;2024-01-11T03:21:00;96714.97;;;20.26
78369;BMP280;71113;43.092;-89.268;2024-01-11T03:23:26;96697.91;;;20.27
78369;BMP280;71113;43.092;-89.268;2024-01-11T03:25:52;96690.72;;;20.28
78369;BMP280;71113;43.092;-89.268;2024-01-11T03:28:18;96686.56;;;20.27
78369;BMP280;71113;43.092;-89.268;2024-01-11T03:30:44;96689.97;;;20.27
78369;BMP280;71113;43.092;-89.268;2024-01-11T03:33:10;96678.63;;;20.27
78369;BMP280;71113;43.092;-89.268;2024-01-11T03:35:35;96668.44;;;20.25
78369;BMP280;71113;43.092;-89.268;2024-01-11T03:38:04;96668.44;;;20.25
78369;BMP280;71113;43.092;-89.268;2024-01-11T03:40:31;96673.72;;;20.25
78369;BMP280;71113;43.092;-89.268;2024-01-11T03:42:57;96658.16;;;20.24
78369;BMP280;71113;43.092;-89.268;2024-01-11T03:45:23;96656.66;;;20.23
78369;BMP280;71113;43.092;-89.268;2024-01-11T03:47:49;96648.38;;;20.24
78369;BMP280;71113;43.092;-89.268;2024-01-11T03:50:15;96643.06;;;20.24
78369;BMP280;71113;43.092;-89.268;2024-01-11T03:52:42;96644.13;;;20.16
78369;BMP280;71113;43.092;-89.268;2024-01-11T03:55:08;96642.25;;;20.17
78369;BMP280;71113;43.092;-89.268;2024-01-11T03:57:34;96636.97;;;20.17
78369;BMP280;71113;43.092;-89.268;2024-01-11T04:00:00;96627.13;;;20.14
78369;BMP280;71113;43.092;-89.268;2024-01-11T04:02:26;96628.56;;;20.07
78369;BMP280;71113;43.092;-89.268;2024-01-11T04:04:52;96627.03;;;20.06
78369;BMP280;71113;43.092;-89.268;2024-01-11T04:07:19;96623.19;;;20.00
78369;BMP280;71113;43.092;-89.268;2024-01-11T04:09:45;96623.91;;;19.94
78369;BMP280;71113;43.092;-89.268;2024-01-11T04:12:11;96614.06;;;19.91
78369;BMP280;71113;43.092;-89.268;2024-01-11T04:14:40;96616.28;;;19.89
78369;BMP280;71113;43.092;-89.268;2024-01-11T04:17:06;96616.25;;;19.85
78369;BMP280;71113;43.092;-89.268;2024-01-11T04:19:32;96611.72;;;19.82
78369;BMP280;71113;43.092;-89.268;2024-01-11T04:21:58;96603.75;;;19.78
78369;BMP280;71113;43.092;-89.268;2024-01-11T04:24:24;96603.69;;;19.75
78369;BMP280;71113;43.092;-89.268;2024-01-11T04:26:50;96601.00;;;19.71
78369;BMP280;71113;43.092;-89.268;2024-01-11T04:29:16;96604.38;;;19.68
78369;BMP280;71113;43.092;-89.268;2024-01-11T04:31:42;96596.81;;;19.67
78369;BMP280;71113;43.092;-89.268;2024-01-11T04:34:08;96594.91;;;19.64
78369;BMP280;71113;43.092;-89.268;2024-01-11T04:36:37;96590.34;;;19.61
78369;BMP280;71113;43.092;-89.268;2024-01-11T04:39:04;96584.25;;;19.57
78369;BMP280;71113;43.092;-89.268;2024-01-11T04:41:31;96577.03;;;19.54
78369;BMP280;71113;43.092;-89.268;2024-01-11T04:43:57;96582.28;;;19.50
78369;BMP280;71113;43.092;-89.268;2024-01-11T04:46:23;96576.63;;;19.48
78369;BMP280;71113;43.092;-89.268;2024-01-11T04:48:50;96578.84;;;19.46
78369;BMP280;71113;43.092;-89.268;2024-01-11T04:51:17;96575.06;;;19.43
78369;BMP280;71113;43.092;-89.268;2024-01-11T04:53:44;96565.56;;;19.39
78369;BMP280;71113;43.092;-89.268;2024-01-11T04:56:13;96570.44;;;19.37
78369;BMP280;71113;43.092;-89.268;2024-01-11T04:58:40;96571.19;;;19.34
78369;BMP280;71113;43.092;-89.268;2024-01-11T05:01:07;96561.72;;;19.33
78369;BMP280;71113;43.092;-89.268;2024-01-11T05:03:33;96560.94;;;19.29
78369;BMP280;71113;43.092;-89.268;2024-01-11T05:05:59;96559.75;;;19.26
78369;BMP280;71113;43.092;-89.268;2024-01-11T05:08:26;96554.84;;;19.25
78369;BMP280;71113;43.092;-89.268;2024-01-11T05:10:52;96552.91;;;19.22
78369;BMP280;71113;43.092;-89.268;2024-01-11T05:13:18;96549.53;;;19.21
78369;BMP280;71113;43.092;-89.268;2024-01-11T05:15:44;96546.81;;;19.17
78369;BMP280;71113;43.092;-89.268;2024-01-11T05:18:10;96537.72;;;19.15
78369;BMP280;71113;43.092;-89.268;2024-01-11T05:20:37;96539.22;;;19.12
78369;BMP280;71113;43.092;-89.268;2024-01-11T05:23:03;96525.97;;;19.09
78369;BMP280;71113;43.092;-89.268;2024-01-11T05:25:32;96528.97;;;19.07
78369;BMP280;71113;43.092;-89.268;2024-01-11T05:28:03;96523.63;;;19.04
78369;BMP280;71113;43.092;-89.268;2024-01-11T05:30:30;96523.25;;;19.02
78369;BMP280;71113;43.092;-89.268;2024-01-11T05:32:56;96519.44;;;18.99
78369;BMP280;71113;43.092;-89.268;2024-01-11T05:35:22;96517.13;;;18.94
78369;BMP280;71113;43.092;-89.268;2024-01-11T05:37:53;96513.75;;;18.94
78369;BMP280;71113;43.092;-89.268;2024-01-11T05:40:20;96500.47;;;18.90
78369;BMP280;71113;43.092;-89.268;2024-01-11T05:42:47;96507.22;;;18.87
78369;BMP280;71113;43.092;-89.268;2024-01-11T05:45:13;96502.31;;;18.86
78369;BMP280;71113;43.092;-89.268;2024-01-11T05:47:43;96501.16;;;18.83
78369;BMP280;71113;43.092;-89.268;2024-01-11T05:50:10;96494.69;;;18.81
78369;BMP280;71113;43.092;-89.268;2024-01-11T05:52:36;96487.50;;;18.78
78369;BMP280;71113;43.092;-89.268;2024-01-11T05:55:01;96487.09;;;18.76
78369;BMP280;71113;43.092;-89.268;2024-01-11T05:57:27;96488.25;;;18.75
78369;BMP280;71113;43.092;-89.268;2024-01-11T05:59:53;96489.69;;;18.72
78369;BMP280;71113;43.092;-89.268;2024-01-11T06:02:19;96481.72;;;18.69
78369;BMP280;71113;43.092;-89.268;2024-01-11T06:04:48;96487.44;;;18.71
78369;BMP280;71113;43.092;-89.268;2024-01-11T06:07:15;96479.44;;;18.67
78369;BMP280;71113;43.092;-89.268;2024-01-11T06:09:41;96482.06;;;18.64
78369;BMP280;71113;43.092;-89.268;2024-01-11T06:12:07;96482.81;;;18.64
78369;BMP280;71113;43.092;-89.268;2024-01-11T06:14:33;96480.88;;;18.61
78369;BMP280;71113;43.092;-89.268;2024-01-11T06:16:58;96486.53;;;18.60
78369;BMP280;71113;43.092;-89.268;2024-01-11T06:19:24;96488.75;;;18.57
78369;BMP280;71113;43.092;-89.268;2024-01-11T06:21:50;96483.84;;;18.56
78369;BMP280;71113;43.092;-89.268;2024-01-11T06:24:16;96483.44;;;18.54
78369;BMP280;71113;43.092;-89.268;2024-01-11T06:26:42;96473.66;;;18.54
78369;BMP280;71113;43.092;-89.268;2024-01-11T06:29:08;96475.13;;;18.52
78369;BMP280;71113;43.092;-89.268;2024-01-11T06:31:33;96475.81;;;18.49
78369;BMP280;71113;43.092;-89.268;2024-01-11T06:33:59;96468.22;;;18.44
78369;BMP280;71113;43.092;-89.268;2024-01-11T06:36:25;96464.09;;;18.46
78369;BMP280;71113;43.092;-89.268;2024-01-11T06:38:51;96469.75;;;18.45
78369;BMP280;71113;43.092;-89.268;2024-01-11T06:41:17;96470.47;;;18.42
78369;BMP280;71113;43.092;-89.268;2024-01-11T06:43:43;96462.47;;;18.38
78369;BMP280;71113;43.092;-89.268;2024-01-11T06:46:09;96463.63;;;18.37
78369;BMP280;71113;43.092;-89.268;2024-01-11T06:48:36;96468.91;;;18.37
78369;BMP280;71113;43.092;-89.268;2024-01-11T06:51:02;96463.97;;;18.36
78369;BMP280;71113;43.092;-89.268;2024-01-11T06:53:28;96463.97;;;18.36
78369;BMP280;71113;43.092;-89.268;2024-01-11T06:55:54;96457.94;;;18.35
78369;BMP280;71113;43.092;-89.268;2024-01-11T06:58:21;96463.50;;;18.30
78369;BMP280;71113;43.092;-89.268;2024-01-11T07:00:49;96458.22;;;18.30
78369;BMP280;71113;43.092;-89.268;2024-01-11T07:03:17;96460.06;;;18.26
78369;BMP280;71113;43.092;-89.268;2024-01-11T07:05:43;96452.56;;;18.28
78369;BMP280;71113;43.092;-89.268;2024-01-11T07:08:09;96454.78;;;18.26
78369;BMP280;71113;43.092;-89.268;2024-01-11T07:10:35;96447.59;;;18.23
78369;BMP280;71113;43.092;-89.268;2024-01-11T07:13:00;96447.59;;;18.23
78369;BMP280;71113;43.092;-89.268;2024-01-11T07:15:26;96456.63;;;18.22
78369;BMP280;71113;43.092;-89.268;2024-01-11T07:17:53;96449.06;;;18.20
78369;BMP280;71113;43.092;-89.268;2024-01-11T07:20:19;96447.53;;;18.19
78369;BMP280;71113;43.092;-89.268;2024-01-11T07:22:45;96453.94;;;18.18
78369;BMP280;71113;43.092;-89.268;2024-01-11T07:25:10;96452.75;;;18.16
78369;BMP280;71113;43.092;-89.268;2024-01-11T07:27:36;96459.16;;;18.15
78369;BMP280;71113;43.092;-89.268;2024-01-11T07:30:02;96451.63;;;18.13
78369;BMP280;71113;43.092;-89.268;2024-01-11T07:32:28;96453.50;;;18.13
78369;BMP280;71113;43.092;-89.268;2024-01-11T07:34:54;96453.06;;;18.11
78369;BMP280;71113;43.092;-89.268;2024-01-11T07:37:20;96461.38;;;18.09
78369;BMP280;71113;43.092;-89.268;2024-01-11T07:39:46;96457.22;;;18.08
78369;BMP280;71113;43.092;-89.268;2024-01-11T07:42:14;96460.19;;;18.07
78369;BMP280;71113;43.092;-89.268;2024-01-11T07:44:40;96460.13;;;18.03
78369;BMP280;71113;43.092;-89.268;2024-01-11T07:47:05;96462.75;;;18.03
78369;BMP280;71113;43.092;-89.268;2024-01-11T07:49:31;96468.41;;;18.02
78369;BMP280;71113;43.092;-89.268;2024-01-11T07:51:57;96467.25;;;17.99
78369;BMP280;71113;43.092;-89.268;2024-01-11T07:54:23;96465.34;;;18.00
78369;BMP280;71113;43.092;-89.268;2024-01-11T07:56:49;96471.75;;;17.99
78369;BMP280;71113;43.092;-89.268;2024-01-11T07:59:15;96474.34;;;17.95
78369;BMP280;71113;43.092;-89.268;2024-01-11T08:01:41;96470.94;;;17.94
78369;BMP280;71113;43.092;-89.268;2024-01-11T08:04:07;96478.84;;;17.94
78369;BMP280;71113;43.092;-89.268;2024-01-11T08:06:33;96481.84;;;17.93
78369;BMP280;71113;43.092;-89.268;2024-01-11T08:08:59;96478.41;;;17.92
78369;BMP280;71113;43.092;-89.268;2024-01-11T08:11:25;96482.94;;;17.92
78369;BMP280;71113;43.092;-89.268;2024-01-11T08:13:51;96478.03;;;17.90
78369;BMP280;71113;43.092;-89.268;2024-01-11T08:16:20;96483.25;;;17.87
78369;BMP280;71113;43.092;-89.268;2024-01-11T08:18:46;96477.22;;;17.86
78369;BMP280;71113;43.092;-89.268;2024-01-11T08:21:13;96483.59;;;17.85
78369;BMP280;71113;43.092;-89.268;2024-01-11T08:23:40;96488.47;;;17.83
78369;BMP280;71113;43.092;-89.268;2024-01-11T08:26:13;96490.00;;;17.84
78369;BMP280;71113;43.092;-89.268;2024-01-11T08:28:39;96480.91;;;17.82
78369;BMP280;71113;43.092;-89.268;2024-01-11T08:31:06;96488.41;;;17.80
78369;BMP280;71113;43.092;-89.268;2024-01-11T08:33:32;96480.50;;;17.80
78369;BMP280;71113;43.092;-89.268;2024-01-11T08:35:58;96492.94;;;17.79
78369;BMP280;71113;43.092;-89.268;2024-01-11T08:38:24;96488.78;;;17.78
78369;BMP280;71113;43.092;-89.268;2024-01-11T08:40:51;96494.38;;;17.77
78369;BMP280;71113;43.092;-89.268;2024-01-11T08:43:17;96486.84;;;17.75
78369;BMP280;71113;43.092;-89.268;2024-01-11T08:45:42;96485.31;;;17.74
78369;BMP280;71113;43.092;-89.268;2024-01-11T08:48:15;96489.03;;;17.73
78369;BMP280;71113;43.092;-89.268;2024-01-11T08:50:40;96480.72;;;17.71
78369;BMP280;71113;43.092;-89.268;2024-01-11T08:53:06;96482.25;;;17.72
78369;BMP280;71113;43.092;-89.268;2024-01-11T08:55:32;96485.28;;;17.71
78369;BMP280;71113;43.092;-89.268;2024-01-11T08:57:58;96479.56;;;17.69
78369;BMP280;71113;43.092;-89.268;2024-01-11T09:00:24;96478.03;;;17.68
78369;BMP280;71113;43.092;-89.268;2024-01-11T09:02:50;96479.50;;;17.65
78369;BMP280;71113;43.092;-89.268;2024-01-11T09:05:16;96470.06;;;17.64
78369;BMP280;71113;43.092;-89.268;2024-01-11T09:07:42;96477.59;;;17.62
78369;BMP280;71113;43.092;-89.268;2024-01-11T09:10:08;96471.19;;;17.63
78369;BMP280;71113;43.092;-89.268;2024-01-11T09:12:35;96470.75;;;17.61
78369;BMP280;71113;43.092;-89.268;2024-01-11T09:15:01;96470.75;;;17.61
78369;BMP280;71113;43.092;-89.268;2024-01-11T09:17:27;96471.16;;;17.59
78369;BMP280;71113;43.092;-89.268;2024-01-11T09:19:53;96467.00;;;17.58
78369;BMP280;71113;43.092;-89.268;2024-01-11T09:22:19;96467.31;;;17.57
78369;BMP280;71113;43.092;-89.268;2024-01-11T09:24:45;96471.47;;;17.58
78369;BMP280;71113;43.092;-89.268;2024-01-11T09:27:11;96471.81;;;17.56
78369;BMP280;71113;43.092;-89.268;2024-01-11T09:29:42;96468.81;;;17.54
78369;BMP280;71113;43.092;-89.268;2024-01-11T09:32:08;96470.66;;;17.54
78369;BMP280;71113;43.092;-89.268;2024-01-11T09:34:34;96480.78;;;17.52
78369;BMP280;71113;43.092;-89.268;2024-01-11T09:37:01;96477.41;;;17.51
78369;BMP280;71113;43.092;-89.268;2024-01-11T09:39:27;96469.06;;;17.49
78369;BMP280;71113;43.092;-89.268;2024-01-11T09:41:59;96470.53;;;17.47
78369;BMP280;71113;43.092;-89.268;2024-01-11T09:44:25;96481.50;;;17.49
78369;BMP280;71113;43.092;-89.268;2024-01-11T09:46:52;96469.03;;;17.46
78369;BMP280;71113;43.092;-89.268;2024-01-11T09:49:21;96469.03;;;17.46
78369;BMP280;71113;43.092;-89.268;2024-01-11T09:51:48;96473.53;;;17.45
78369;BMP280;71113;43.092;-89.268;2024-01-11T09:54:15;96475.75;;;17.43
78369;BMP280;71113;43.092;-89.268;2024-01-11T09:56:43;96487.38;;;17.42
78369;BMP280;71113;43.092;-89.268;2024-01-11T09:59:10;96492.28;;;17.40
78369;BMP280;71113;43.092;-89.268;2024-01-11T10:01:36;96499.44;;;17.40
78369;BMP280;71113;43.092;-89.268;2024-01-11T10:04:03;96503.13;;;17.39
78369;BMP280;71113;43.092;-89.268;2024-01-11T10:06:32;96514.78;;;17.38
78369;BMP280;71113;43.092;-89.268;2024-01-11T10:09:01;96524.56;;;17.37
78369;BMP280;71113;43.092;-89.268;2024-01-11T10:11:28;96532.09;;;17.35
78369;BMP280;71113;43.092;-89.268;2024-01-11T10:13:57;96533.59;;;17.36
78369;BMP280;71113;43.092;-89.268;2024-01-11T10:16:24;96541.09;;;17.34
78369;BMP280;71113;43.092;-89.268;2024-01-11T10:18:51;96544.84;;;17.33
78369;BMP280;71113;43.092;-89.268;2024-01-11T10:21:19;96550.88;;;17.33
78369;BMP280;71113;43.092;-89.268;2024-01-11T10:23:44;96545.94;;;17.32
78369;BMP280;71113;43.092;-89.268;2024-01-11T10:26:10;96542.91;;;17.30
78369;BMP280;71113;43.092;-89.268;2024-01-11T10:28:36;96545.88;;;17.28
78369;BMP280;71113;43.092;-89.268;2024-01-11T10:31:06;96545.13;;;17.28
78369;BMP280;71113;43.092;-89.268;2024-01-11T10:33:33;96553.03;;;17.28
78369;BMP280;71113;43.092;-89.268;2024-01-11T10:36:00;96554.53;;;17.29
78369;BMP280;71113;43.092;-89.268;2024-01-11T10:38:26;96561.00;;;17.31
78369;BMP280;71113;43.092;-89.268;2024-01-11T10:40:53;96560.69;;;17.37
78369;BMP280;71113;43.092;-89.268;2024-01-11T10:43:22;96572.09;;;17.41
78369;BMP280;71113;43.092;-89.268;2024-01-11T10:45:52;96587.25;;;17.47
78369;BMP280;71113;43.092;-89.268;2024-01-11T10:48:25;96595.31;;;17.54
78369;BMP280;71113;43.092;-89.268;2024-01-11T10:51:01;96596.56;;;17.60
78369;BMP280;71113;43.092;-89.268;2024-01-11T10:53:33;96600.84;;;17.69
78369;BMP280;71113;43.092;-89.268;2024-01-11T10:56:05;96600.91;;;17.72
78369;BMP280;71113;43.092;-89.268;2024-01-11T10:58:35;96609.63;;;17.76
78369;BMP280;71113;43.092;-89.268;2024-01-11T11:01:02;96614.63;;;17.81
78369;BMP280;71113;43.092;-89.268;2024-01-11T11:03:30;96625.59;;;17.83
78369;BMP280;71113;43.092;-89.268;2024-01-11T11:06:00;96625.31;;;17.88
78369;BMP280;71113;43.092;-89.268;2024-01-11T11:08:27;96634.81;;;17.93
78369;BMP280;71113;43.092;-89.268;2024-01-11T11:10:57;96636.47;;;18.01
78369;BMP280;71113;43.092;-89.268;2024-01-11T11:13:23;96643.31;;;18.06
78369;BMP280;71113;43.092;-89.268;2024-01-11T11:15:50;96655.06;;;18.08
78369;BMP280;71113;43.092;-89.268;2024-01-11T11:18:17;96648.34;;;18.14
78369;BMP280;71113;43.092;-89.268;2024-01-11T11:20:44;96654.13;;;18.20
78369;BMP280;71113;43.092;-89.268;2024-01-11T11:23:12;96656.47;;;18.25
78369;BMP280;71113;43.092;-89.268;2024-01-11T11:25:40;96666.72;;;18.30
78369;BMP280;71113;43.092;-89.268;2024-01-11T11:28:07;96672.13;;;18.37
78369;BMP280;71113;43.092;-89.268;2024-01-11T11:30:36;96672.94;;;18.41
78369;BMP280;71113;43.092;-89.268;2024-01-11T11:33:21;96682.81;;;18.44
78369;BMP280;71113;43.092;-89.268;2024-01-11T11:35:47;96684.44;;;18.52
78369;BMP280;71113;43.092;-89.268;2024-01-11T11:38:23;96689.03;;;18.55
78369;BMP280;71113;43.092;-89.268;2024-01-11T11:40:55;96694.41;;;18.63
78369;BMP280;71113;43.092;-89.268;2024-01-11T11:43:22;96701.69;;;18.69
78369;BMP280;71113;43.092;-89.268;2024-01-11T11:45:49;96709.31;;;18.74
78369;BMP280;71113;43.092;-89.268;2024-01-11T11:51:06;96721.56;;;18.86
78369;BMP280;71113;43.092;-89.268;2024-01-11T11:53:40;96736.00;;;18.92
78369;BMP280;71113;43.092;-89.268;2024-01-11T11:56:07;96748.97;;;19.01
78369;BMP280;71113;43.092;-89.268;2024-01-11T11:58:35;96762.19;;;19.01
78369;BMP280;71113;43.092;-89.268;2024-01-11T12:01:01;96773.16;;;19.03
78369;BMP280;71113;43.092;-89.268;2024-01-11T12:03:35;96773.91;;;19.03
78369;BMP280;71113;43.092;-89.268;2024-01-11T12:06:05;96774.03;;;19.10
78369;BMP280;71113;43.092;-89.268;2024-01-11T12:08:32;96789.22;;;19.17
78369;BMP280;71113;43.092;-89.268;2024-01-11T12:10:58;96787.41;;;19.21
78369;BMP280;71113;43.092;-89.268;2024-01-11T12:13:25;96785.19;;;19.27
78369;BMP280;71113;43.092;-89.268;2024-01-11T12:15:51;96792.44;;;19.30
78369;BMP280;71113;43.092;-89.268;2024-01-11T12:18:17;96815.03;;;19.27
78369;BMP280;71113;43.092;-89.268;2024-01-11T12:20:44;96828.38;;;19.34
78369;BMP280;71113;43.092;-89.268;2024-01-11T12:23:10;96836.94;;;19.28
78369;BMP280;71113;43.092;-89.268;2024-01-11T12:25:37;96849.31;;;19.20
78369;BMP280;71113;43.092;-89.268;2024-01-11T12:28:03;96857.94;;;19.17
78369;BMP280;71113;43.092;-89.268;2024-01-11T12:30:31;96868.84;;;19.15
78369;BMP280;71113;43.092;-89.268;2024-01-11T12:32:59;96877.91;;;19.14
78369;BMP280;71113;43.092;-89.268;2024-01-11T12:35:27;96885.47;;;19.16
78369;BMP280;71113;43.092;-89.268;2024-01-11T12:38:00;96888.53;;;19.18
78369;BMP280;71113;43.092;-89.268;2024-01-11T12:40:27;96881.56;;;19.29
78369;BMP280;71113;43.092;-89.268;2024-01-11T12:42:53;96891.41;;;19.32
78369;BMP280;71113;43.092;-89.268;2024-01-11T12:45:20;96903.22;;;19.38
78369;BMP280;71113;43.092;-89.268;2024-01-11T12:47:47;96915.72;;;19.41
78369;BMP280;71113;43.092;-89.268;2024-01-11T12:50:13;96931.66;;;19.45
78369;BMP280;71113;43.092;-89.268;2024-01-11T12:52:39;96951.94;;;19.37
78369;BMP280;71113;43.092;-89.268;2024-01-11T12:55:07;96950.00;;;19.34
78369;BMP280;71113;43.092;-89.268;2024-01-11T12:57:34;96954.88;;;19.32
78369;BMP280;71113;43.092;-89.268;2024-01-11T13:00:10;96955.91;;;19.28
78369;BMP280;71113;43.092;-89.268;2024-01-11T13:02:37;96960.09;;;19.29
78369;BMP280;71113;43.092;-89.268;2024-01-11T13:05:04;96962.75;;;19.29
78369;BMP280;71113;43.092;-89.268;2024-01-11T13:07:30;96966.06;;;19.26
78369;BMP280;71113;43.092;-89.268;2024-01-11T13:09:56;96966.06;;;19.26
78369;BMP280;71113;43.092;-89.268;2024-01-11T13:12:22;96979.28;;;19.26
78369;BMP280;71113;43.092;-89.268;2024-01-11T13:14:48;96966.06;;;19.26
78369;BMP280;71113;43.092;-89.268;2024-01-11T13:17:16;96977.06;;;19.28
78369;BMP280;71113;43.092;-89.268;2024-01-11T13:19:42;96984.28;;;19.31
78369;BMP280;71113;43.092;-89.268;2024-01-11T13:22:07;96994.28;;;19.41
78369;BMP280;71113;43.092;-89.268;2024-01-11T13:24:34;97005.03;;;19.48
78369;BMP280;71113;43.092;-89.268;2024-01-11T13:27:00;97013.88;;;19.59
78369;BMP280;71113;43.092;-89.268;2024-01-11T13:29:27;97006.41;;;19.65
78369;BMP280;71113;43.092;-89.268;2024-01-11T13:31:53;97013.53;;;19.61
78369;BMP280;71113;43.092;-89.268;2024-01-11T13:34:18;97027.81;;;19.56
78369;BMP280;71113;43.092;-89.268;2024-01-11T13:36:45;97029.63;;;19.52
78369;BMP280;71113;43.092;-89.268;2024-01-11T13:39:11;97039.47;;;19.52
78369;BMP280;71113;43.092;-89.268;2024-01-11T13:41:36;97040.53;;;19.50
78369;BMP280;71113;43.092;-89.268;2024-01-11T13:44:02;97054.56;;;19.51